createdAt,value
2022-11-28T00:02:02.903Z,1.70
2022-11-28T00:04:29.460Z,1.70
2022-11-28T00:06:56.596Z,1.60
2022-11-28T00:09:23.248Z,1.70
2022-11-28T00:11:50.087Z,1.60
2022-11-28T00:14:17.164Z,1.60
2022-11-28T00:16:43.730Z,1.50
2022-11-28T00:19:10.786Z,1.50
2022-11-28T00:21:37.340Z,1.50
2022-11-28T00:24:04.169Z,1.60
2022-11-28T00:26:32.315Z,1.50
2022-11-28T00:28:59.304Z,1.40
2022-11-28T00:31:26.895Z,1.40
2022-11-28T00:33:54.048Z,1.30
2022-11-28T00:36:21.353Z,1.30
2022-11-28T00:38:48.019Z,1.20
2022-11-28T00:41:15.436Z,1.20
2022-11-28T00:43:42.654Z,1.30
2022-11-28T00:46:09.687Z,1.30
2022-11-28T00:48:36.279Z,1.20
2022-11-28T00:51:05.950Z,1.20
2022-11-28T00:53:32.568Z,1.20
2022-11-28T00:55:59.133Z,1.20
2022-11-28T00:58:25.692Z,1.20
2022-11-28T01:00:52.261Z,1.10
2022-11-28T01:03:18.908Z,1.10
2022-11-28T01:05:45.934Z,1.10
2022-11-28T01:08:12.615Z,1.10
2022-11-28T01:10:41.028Z,1.10
2022-11-28T01:13:08.083Z,1.00
2022-11-28T01:15:34.650Z,1.00
2022-11-28T01:18:02.593Z,1.00
2022-11-28T01:20:29.188Z,1.10
2022-11-28T01:22:55.715Z,1.00
2022-11-28T01:25:22.352Z,1.00
2022-11-28T01:27:49.007Z,1.10
2022-11-28T01:30:15.573Z,1.10
2022-11-28T01:32:42.136Z,1.00
2022-11-28T01:35:09.049Z,0.90
2022-11-28T01:37:35.607Z,0.90
2022-11-28T01:40:02.152Z,0.90
2022-11-28T01:42:28.691Z,0.90
2022-11-28T01:44:55.193Z,0.80
2022-11-28T01:47:23.101Z,0.90
2022-11-28T01:49:49.977Z,0.90
2022-11-28T01:52:18.902Z,0.90
2022-11-28T01:54:47.905Z,1.00
2022-11-28T01:57:16.759Z,0.90
2022-11-28T01:59:45.250Z,0.90
2022-11-28T02:02:15.622Z,0.90
2022-11-28T02:04:42.435Z,0.90
2022-11-28T02:07:09.348Z,0.90
2022-11-28T02:09:35.961Z,1.00
2022-11-28T02:12:17.416Z,1.10
2022-11-28T02:14:57.304Z,1.10
2022-11-28T02:17:35.598Z,1.10
2022-11-28T02:20:10.732Z,1.10
2022-11-28T02:22:56.221Z,1.10
2022-11-28T02:25:31.931Z,1.20
2022-11-28T02:28:17.286Z,1.10
2022-11-28T02:30:50.144Z,1.10
2022-11-28T02:33:21.688Z,1.20
2022-11-28T02:36:03.888Z,1.30
2022-11-28T02:38:36.616Z,1.30
2022-11-28T02:41:03.191Z,1.30
2022-11-28T02:43:32.880Z,1.30
2022-11-28T02:46:17.193Z,1.30
2022-11-28T02:52:08.312Z,1.30
2022-11-28T02:54:35.208Z,1.30
2022-11-28T02:57:02.988Z,1.30
2022-11-28T02:59:44.405Z,1.30
2022-11-28T03:02:13.776Z,1.40
2022-11-28T03:04:58.804Z,1.30
2022-11-28T03:07:43.816Z,1.30
2022-11-28T03:10:24.723Z,1.30
2022-11-28T03:12:59.554Z,1.40
2022-11-28T03:15:36.948Z,1.40
2022-11-28T03:18:15.691Z,1.40
2022-11-28T03:20:42.293Z,1.30
2022-11-28T03:23:16.129Z,1.40
2022-11-28T03:25:52.052Z,1.50
2022-11-28T03:28:31.735Z,1.50
2022-11-28T03:31:18.736Z,1.50
2022-11-28T03:33:47.454Z,1.50
2022-11-28T03:36:19.776Z,1.60
2022-11-28T03:38:48.619Z,1.50
2022-11-28T03:41:18.408Z,1.40
2022-11-28T03:43:48.391Z,1.30
2022-11-28T03:46:17.028Z,1.30
2022-11-28T03:48:48.542Z,1.40
2022-11-28T03:51:20.505Z,1.30
2022-11-28T03:53:53.808Z,1.40
2022-11-28T03:56:20.325Z,1.30
2022-11-28T03:58:54.636Z,1.30
2022-11-28T04:01:28.424Z,1.30
2022-11-28T04:03:59.821Z,1.30
2022-11-28T04:06:28.535Z,1.30
2022-11-28T04:09:01.670Z,1.30
2022-11-28T04:11:37.139Z,1.20
2022-11-28T04:14:08.105Z,1.20
2022-11-28T04:16:40.392Z,1.20
2022-11-28T04:19:15.891Z,1.10
2022-11-28T04:21:58.883Z,1.10
2022-11-28T04:24:28.408Z,1.10
2022-11-28T04:26:58.331Z,1.10
2022-11-28T04:29:25.644Z,1.10
2022-11-28T04:31:54.570Z,1.20
2022-11-28T04:34:23.284Z,1.30
2022-11-28T04:36:50.043Z,1.30
2022-11-28T04:39:18.935Z,1.40
2022-11-28T04:41:48.438Z,1.40
2022-11-28T04:44:36.531Z,1.40
2022-11-28T04:47:03.292Z,1.50
2022-11-28T04:49:30.334Z,1.40
2022-11-28T04:52:15.443Z,1.40
2022-11-28T04:54:57.403Z,1.50
2022-11-28T04:57:26.888Z,1.50
2022-11-28T04:59:53.780Z,1.50
2022-11-28T05:02:21.128Z,1.50
2022-11-28T05:04:47.707Z,1.50
2022-11-28T05:07:14.239Z,1.50
2022-11-28T05:09:40.831Z,1.50
2022-11-28T05:12:07.554Z,1.60
2022-11-28T05:14:35.568Z,1.60
2022-11-28T05:17:02.158Z,1.70
2022-11-28T05:19:28.708Z,1.70
2022-11-28T05:21:55.252Z,1.70
2022-11-28T05:24:22.603Z,1.70
2022-11-28T05:26:49.727Z,1.70
2022-11-28T05:29:16.447Z,1.80
2022-11-28T05:31:43.200Z,1.80
2022-11-28T05:34:09.838Z,1.80
2022-11-28T05:36:36.385Z,1.90
2022-11-28T05:39:03.027Z,1.90
2022-11-28T05:41:30.524Z,1.90
2022-11-28T05:43:57.939Z,1.90
2022-11-28T05:46:24.692Z,2.00
2022-11-28T05:48:51.335Z,2.00
2022-11-28T05:51:18.138Z,2.00
2022-11-28T05:53:44.678Z,2.00
2022-11-28T05:56:15.555Z,2.10
2022-11-28T05:58:42.455Z,2.20
2022-11-28T06:01:19.617Z,2.20
2022-11-28T06:03:46.349Z,2.30
2022-11-28T06:06:14.490Z,2.50
2022-11-28T06:08:41.326Z,2.70
2022-11-28T06:11:08.091Z,2.80
2022-11-28T06:13:34.659Z,2.80
2022-11-28T06:16:01.610Z,2.90
2022-11-28T06:18:28.183Z,2.90
2022-11-28T06:20:55.289Z,3.00
2022-11-28T06:23:21.881Z,2.90
2022-11-28T06:25:48.387Z,3.00
2022-11-28T06:28:14.902Z,2.90
2022-11-28T06:30:43.187Z,3.10
2022-11-28T06:33:09.729Z,3.10
2022-11-28T06:35:36.275Z,3.10
2022-11-28T06:38:02.801Z,3.00
2022-11-28T06:40:29.361Z,3.10
2022-11-28T06:42:56.014Z,3.20
2022-11-28T06:45:22.532Z,3.20
2022-11-28T06:47:49.048Z,3.30
2022-11-28T06:50:15.628Z,3.30
2022-11-28T06:52:42.219Z,3.30
2022-11-28T06:55:08.879Z,3.30
2022-11-28T06:57:35.723Z,3.30
2022-11-28T07:00:02.546Z,3.30
2022-11-28T07:02:29.226Z,3.30
2022-11-28T07:04:55.795Z,3.30
2022-11-28T07:07:22.392Z,3.30
2022-11-28T07:09:51.075Z,3.40
2022-11-28T07:12:17.782Z,3.40
2022-11-28T07:14:44.307Z,3.70
2022-11-28T07:17:10.864Z,3.80
2022-11-28T07:19:37.488Z,3.70
2022-11-28T07:22:04.677Z,3.70
2022-11-28T07:24:31.295Z,3.70
2022-11-28T07:26:58.043Z,3.60
2022-11-28T07:29:24.623Z,3.70
2022-11-28T07:31:51.252Z,3.70
2022-11-28T07:34:17.809Z,3.70
2022-11-28T07:36:44.359Z,3.80
2022-11-28T07:39:13.422Z,3.70
2022-11-28T07:41:39.928Z,4.00
2022-11-28T07:44:06.468Z,3.90
2022-11-28T07:46:33.934Z,4.00
2022-11-28T07:49:00.671Z,4.00
2022-11-28T07:51:28.636Z,4.00
2022-11-28T07:53:55.751Z,4.00
2022-11-28T07:56:23.583Z,4.00
2022-11-28T07:58:50.317Z,4.10
2022-11-28T08:01:20.986Z,4.00
2022-11-28T08:03:48.063Z,4.00
2022-11-28T08:06:15.434Z,4.00
2022-11-28T08:08:42.265Z,4.00
2022-11-28T08:11:09.438Z,4.10
2022-11-28T08:13:36.898Z,4.10
2022-11-28T08:16:07.528Z,4.10
2022-11-28T08:18:37.369Z,4.10
2022-11-28T08:21:07.392Z,4.10
2022-11-28T08:23:34.665Z,4.10
2022-11-28T08:26:02.269Z,4.20
2022-11-28T08:28:29.040Z,4.10
2022-11-28T08:30:56.196Z,4.20
2022-11-28T08:33:26.237Z,4.30
2022-11-28T08:35:52.782Z,4.30
2022-11-28T08:38:19.402Z,4.30
2022-11-28T08:40:46.024Z,4.30
2022-11-28T08:43:13.088Z,4.40
2022-11-28T08:45:39.705Z,4.40
2022-11-28T08:48:06.373Z,4.50
2022-11-28T08:50:32.946Z,4.50
2022-11-28T08:53:01.865Z,4.50
2022-11-28T08:55:39.135Z,4.50
2022-11-28T08:58:08.245Z,4.50
2022-11-28T09:00:34.909Z,4.50
2022-11-28T09:03:01.428Z,4.60
2022-11-28T09:05:28.975Z,4.60
2022-11-28T09:07:55.779Z,4.60
2022-11-28T09:10:22.941Z,4.70
2022-11-28T09:12:49.462Z,4.80
2022-11-28T09:15:16.016Z,4.80
2022-11-28T09:17:42.519Z,4.90
2022-11-28T09:20:09.773Z,5.00
2022-11-28T09:22:36.422Z,5.10
2022-11-28T09:25:02.992Z,5.10
2022-11-28T09:27:29.541Z,5.20
2022-11-28T09:29:56.189Z,5.30
2022-11-28T09:32:22.821Z,5.40
2022-11-28T09:34:51.073Z,5.40
2022-11-28T09:37:18.011Z,5.50
2022-11-28T09:40:11.478Z,5.60
2022-11-28T09:42:37.530Z,5.70
2022-11-28T09:45:07.493Z,5.80
2022-11-28T09:47:36.776Z,5.90
2022-11-28T09:50:19.353Z,5.90
2022-11-28T09:52:49.669Z,5.80
2022-11-28T09:55:19.380Z,5.90
2022-11-28T09:57:47.849Z,5.90
2022-11-28T10:00:34.853Z,6.00
2022-11-28T10:03:08.826Z,6.00
2022-11-28T10:05:38.517Z,6.10
2022-11-28T10:08:12.643Z,6.30
2022-11-28T10:10:50.319Z,6.30
2022-11-28T10:13:32.685Z,6.30
2022-11-28T10:16:13.762Z,6.30
2022-11-28T10:18:40.442Z,6.40
2022-11-28T10:21:30.058Z,6.30
2022-11-28T10:23:58.283Z,6.30
2022-11-28T10:26:24.782Z,6.30
2022-11-28T10:28:53.516Z,6.20
2022-11-28T10:31:28.004Z,6.20
2022-11-28T10:34:07.196Z,6.20
2022-11-28T10:36:48.684Z,6.20
2022-11-28T10:39:15.349Z,6.20
2022-11-28T10:42:14.426Z,6.30
2022-11-28T10:44:53.276Z,6.40
2022-11-28T10:47:39.223Z,6.50
2022-11-28T10:50:29.295Z,6.50
2022-11-28T10:52:58.713Z,6.40
2022-11-28T10:55:34.614Z,6.50
2022-11-28T10:58:08.781Z,6.50
2022-11-28T11:00:36.255Z,6.60
2022-11-28T11:03:04.132Z,6.70
2022-11-28T11:05:32.257Z,6.70
2022-11-28T11:08:02.362Z,6.80
2022-11-28T11:10:36.687Z,6.90
2022-11-28T11:13:12.893Z,7.00
2022-11-28T11:15:39.997Z,7.10
2022-11-28T11:18:20.945Z,7.10
2022-11-28T11:20:47.502Z,7.10
2022-11-28T11:23:17.119Z,7.00
2022-11-28T11:25:51.768Z,6.90
2022-11-28T11:28:37.279Z,6.90
2022-11-28T11:31:05.868Z,6.90
2022-11-28T11:33:34.491Z,6.90
2022-11-28T11:36:03.627Z,6.80
2022-11-28T11:38:37.460Z,6.80
2022-11-28T11:41:19.152Z,6.90
2022-11-28T11:43:45.761Z,7.00
2022-11-28T11:46:13.573Z,7.00
2022-11-28T11:48:41.380Z,7.00
2022-11-28T11:51:21.247Z,6.90
2022-11-28T11:53:47.966Z,6.80
2022-11-28T11:56:14.623Z,6.70
2022-11-28T11:58:43.626Z,6.60
2022-11-28T12:01:11.492Z,6.60
2022-11-28T12:03:40.925Z,6.60
2022-11-28T12:06:14.533Z,6.50
2022-11-28T12:08:51.375Z,6.60
2022-11-28T12:11:26.722Z,6.80
2022-11-28T12:13:53.378Z,6.70
2022-11-28T12:16:25.849Z,6.60
2022-11-28T12:19:11.112Z,6.60
2022-11-28T12:21:50.371Z,6.50
2022-11-28T12:24:19.361Z,6.50
2022-11-28T12:26:59.071Z,6.50
2022-11-28T12:29:41.647Z,6.60
2022-11-28T12:32:15.106Z,6.50
2022-11-28T12:34:41.637Z,6.40
2022-11-28T12:37:08.170Z,6.40
2022-11-28T12:39:56.744Z,6.50
2022-11-28T12:42:35.740Z,6.40
2022-11-28T12:45:14.601Z,6.30
2022-11-28T12:47:47.445Z,6.20
2022-11-28T12:50:35.549Z,6.10
2022-11-28T12:53:25.485Z,6.10
2022-11-28T12:56:04.113Z,6.10
2022-11-28T12:58:37.074Z,6.00
2022-11-28T13:01:04.333Z,6.00
2022-11-28T13:03:40.935Z,6.00
2022-11-28T13:06:16.766Z,6.00
2022-11-28T13:08:55.465Z,6.00
2022-11-28T13:11:22.016Z,5.90
2022-11-28T13:13:55.053Z,5.90
2022-11-28T13:16:27.247Z,5.90
2022-11-28T13:19:23.591Z,5.90
2022-11-28T13:21:54.232Z,6.00
2022-11-28T13:24:34.601Z,6.00
2022-11-28T13:27:22.854Z,5.90
2022-11-28T13:30:08.324Z,5.80
2022-11-28T13:32:40.443Z,5.70
2022-11-28T13:35:11.446Z,5.70
2022-11-28T13:40:48.522Z,5.70
2022-11-28T13:43:15.100Z,5.80
2022-11-28T13:45:43.175Z,5.90
2022-11-28T13:48:49.949Z,6.00
2022-11-28T13:51:20.020Z,6.20
2022-11-28T13:53:51.657Z,6.10
2022-11-28T13:56:27.662Z,6.20
2022-11-28T13:59:00.643Z,6.10
2022-11-28T14:01:46.470Z,6.00
2022-11-28T14:04:14.476Z,6.00
2022-11-28T14:06:47.880Z,6.00
2022-11-28T14:09:14.649Z,5.80
2022-11-28T14:11:53.149Z,5.80
2022-11-28T14:14:22.815Z,5.70
2022-11-28T14:16:55.698Z,5.60
2022-11-28T14:19:36.917Z,5.70
2022-11-28T14:22:12.398Z,5.70
2022-11-28T14:24:38.880Z,5.60
2022-11-28T14:27:06.037Z,5.60
2022-11-28T14:29:36.796Z,5.60
2022-11-28T14:32:29.071Z,5.60
2022-11-28T14:34:50.955Z,5.60
2022-11-28T14:37:27.115Z,5.60
2022-11-28T14:39:54.723Z,5.60
2022-11-28T14:42:59.995Z,5.50
2022-11-28T14:45:33.233Z,5.50
2022-11-28T14:48:06.548Z,5.40
2022-11-28T14:50:39.345Z,5.40
2022-11-28T14:53:24.853Z,5.40
2022-11-28T14:55:51.584Z,5.30
2022-11-28T14:58:19.487Z,5.30
2022-11-28T15:00:55.216Z,5.20
2022-11-28T15:03:48.213Z,5.20
2022-11-28T15:06:19.836Z,5.20
2022-11-28T15:08:49.496Z,5.20
2022-11-28T15:11:16.044Z,5.20
2022-11-28T15:13:48.115Z,5.10
2022-11-28T15:16:15.603Z,5.10
2022-11-28T15:18:47.147Z,5.10
2022-11-28T15:21:15.610Z,5.10
2022-11-28T15:23:42.479Z,5.10
2022-11-28T15:26:22.790Z,5.10
2022-11-28T15:28:49.464Z,5.10
2022-11-28T15:31:22.840Z,5.00
2022-11-28T15:33:50.042Z,5.00
2022-11-28T15:36:22.044Z,5.00
2022-11-28T15:38:48.603Z,5.00
2022-11-28T15:41:19.561Z,4.90
2022-11-28T15:43:46.317Z,4.90
2022-11-28T15:46:18.070Z,5.00
2022-11-28T15:48:49.285Z,5.00
2022-11-28T15:51:25.164Z,4.90
2022-11-28T15:53:51.684Z,4.90
2022-11-28T15:56:19.107Z,4.90
2022-11-28T15:58:47.646Z,4.90
2022-11-28T16:01:17.010Z,4.90
2022-11-28T16:03:47.421Z,4.90
2022-11-28T16:06:14.154Z,4.80
2022-11-28T16:09:07.344Z,4.90
2022-11-28T16:11:35.521Z,4.80
2022-11-28T16:14:07.049Z,4.80
2022-11-28T16:16:35.706Z,4.90
2022-11-28T16:19:04.270Z,4.80
2022-11-28T16:21:35.482Z,4.80
2022-11-28T16:24:03.432Z,4.90
2022-11-28T16:26:32.202Z,4.90
2022-11-28T16:29:01.675Z,5.00
2022-11-28T16:31:28.553Z,5.00
2022-11-28T16:33:55.294Z,5.00
2022-11-28T16:36:24.338Z,5.00
2022-11-28T16:38:52.296Z,5.00
2022-11-28T16:41:22.822Z,5.00
2022-11-28T16:43:52.370Z,4.90
2022-11-28T16:46:20.450Z,5.00
2022-11-28T16:48:48.547Z,4.90
2022-11-28T16:51:15.289Z,5.00
2022-11-28T16:53:41.820Z,4.90
2022-11-28T16:56:23.308Z,4.90
2022-11-28T16:58:54.900Z,4.90
2022-11-28T17:01:21.735Z,4.80
2022-11-28T17:03:52.772Z,4.90
2022-11-28T17:06:21.268Z,4.90
2022-11-28T17:08:47.896Z,5.00
2022-11-28T17:11:15.190Z,4.90
2022-11-28T17:13:41.812Z,4.80
2022-11-28T17:16:14.329Z,4.80
2022-11-28T17:18:40.865Z,4.90
2022-11-28T17:21:09.548Z,4.80
2022-11-28T17:23:36.106Z,4.80
2022-11-28T17:26:02.647Z,4.80
2022-11-28T17:28:29.368Z,4.80
2022-11-28T17:30:55.923Z,4.80
2022-11-28T17:33:22.981Z,4.80
2022-11-28T17:35:51.012Z,4.80
2022-11-28T17:38:17.524Z,4.70
2022-11-28T17:40:44.781Z,4.70
2022-11-28T17:43:15.297Z,4.60
2022-11-28T17:45:42.003Z,4.60
2022-11-28T17:48:09.299Z,4.50
2022-11-28T17:50:35.826Z,4.50
2022-11-28T17:53:02.529Z,4.50
2022-11-28T17:55:29.169Z,4.50
2022-11-28T17:57:55.748Z,4.40
2022-11-28T18:00:22.485Z,4.40
2022-11-28T18:02:49.085Z,4.40
2022-11-28T18:05:15.861Z,4.30
2022-11-28T18:07:42.546Z,4.30
2022-11-28T18:10:09.829Z,4.30
2022-11-28T18:12:38.173Z,4.30
2022-11-28T18:15:04.986Z,4.20
2022-11-28T18:17:31.513Z,4.20
2022-11-28T18:19:58.148Z,4.20
2022-11-28T18:22:24.828Z,4.20
2022-11-28T18:24:51.396Z,4.10
2022-11-28T18:27:17.972Z,4.20
2022-11-28T18:29:44.909Z,4.20
2022-11-28T18:32:11.711Z,4.20
2022-11-28T18:34:38.263Z,4.10
2022-11-28T18:37:05.235Z,4.10
2022-11-28T18:39:33.039Z,4.10
2022-11-28T18:42:00.049Z,4.20
2022-11-28T18:44:26.595Z,4.10
2022-11-28T18:46:53.311Z,4.00
2022-11-28T18:49:20.278Z,4.00
2022-11-28T18:51:46.942Z,4.00
2022-11-28T18:54:19.255Z,4.00
2022-11-28T18:56:47.522Z,4.00
2022-11-28T18:59:14.171Z,4.00
2022-11-28T19:01:40.733Z,4.00
2022-11-28T19:04:09.246Z,4.00
2022-11-28T19:06:37.294Z,4.00
2022-11-28T19:09:05.898Z,4.00
2022-11-28T19:11:32.542Z,4.00
2022-11-28T19:13:59.116Z,4.00
2022-11-28T19:16:27.454Z,4.00
2022-11-28T19:18:54.156Z,4.00
2022-11-28T19:21:24.097Z,3.90
2022-11-28T19:23:51.429Z,3.90
2022-11-28T19:26:19.303Z,3.90
2022-11-28T19:28:46.285Z,4.00
2022-11-28T19:31:21.167Z,4.00
2022-11-28T19:33:57.536Z,4.00
2022-11-28T19:36:29.915Z,4.00
2022-11-28T19:38:56.451Z,4.00
2022-11-28T19:41:23.024Z,3.90
2022-11-28T19:43:49.872Z,3.90
2022-11-28T19:46:16.452Z,3.90
2022-11-28T19:48:43.289Z,3.90
2022-11-28T19:51:10.584Z,4.00
2022-11-28T19:53:37.880Z,3.90
2022-11-28T19:56:05.521Z,4.00
2022-11-28T19:58:32.228Z,3.90
2022-11-28T20:01:09.492Z,3.90
2022-11-28T20:03:36.826Z,3.90
2022-11-28T20:06:07.358Z,3.80
2022-11-28T20:08:33.929Z,3.80
2022-11-28T20:11:06.598Z,3.80
2022-11-28T20:13:33.687Z,3.90
2022-11-28T20:16:04.460Z,3.90
2022-11-28T20:18:31.293Z,3.90
2022-11-28T20:21:05.212Z,4.00
2022-11-28T20:23:31.921Z,4.00
2022-11-28T20:26:02.703Z,3.90
2022-11-28T20:28:31.101Z,3.90
2022-11-28T20:30:57.842Z,3.90
2022-11-28T20:33:24.425Z,3.90
2022-11-28T20:35:56.934Z,3.90
2022-11-28T20:38:26.356Z,3.90
2022-11-28T20:40:58.754Z,3.80
2022-11-28T20:43:25.494Z,3.80
2022-11-28T20:45:52.082Z,3.80
2022-11-28T20:48:18.668Z,3.80
2022-11-28T20:50:45.231Z,3.80
2022-11-28T20:53:11.758Z,3.80
2022-11-28T20:55:40.879Z,3.90
2022-11-28T20:58:07.786Z,3.90
2022-11-28T21:00:34.335Z,3.90
2022-11-28T21:03:00.914Z,3.90
2022-11-28T21:05:27.557Z,3.90
2022-11-28T21:07:54.144Z,3.90
2022-11-28T21:10:20.723Z,3.90
2022-11-28T21:12:47.305Z,4.00
2022-11-28T21:15:13.893Z,3.90
2022-11-28T21:17:40.704Z,4.00
2022-11-28T21:20:09.100Z,4.00
2022-11-28T21:22:35.636Z,3.90
2022-11-28T21:25:02.259Z,3.90
2022-11-28T21:27:28.909Z,4.00
2022-11-28T21:29:55.500Z,3.90
2022-11-28T21:32:22.060Z,3.90
2022-11-28T21:34:48.667Z,3.90
2022-11-28T21:37:15.195Z,3.80
2022-11-28T21:39:42.082Z,3.80
2022-11-28T21:42:08.911Z,3.80
2022-11-28T21:44:35.453Z,3.80
2022-11-28T21:47:04.854Z,3.90
2022-11-28T21:49:31.964Z,3.90
2022-11-28T21:51:58.520Z,3.90
2022-11-28T21:54:25.580Z,3.90
2022-11-28T21:56:52.232Z,3.90
2022-11-28T21:59:18.853Z,3.80
2022-11-28T22:01:45.616Z,3.80
2022-11-28T22:04:12.281Z,3.80
2022-11-28T22:06:39.185Z,3.90
2022-11-28T22:09:09.374Z,3.80
2022-11-28T22:11:36.778Z,3.80
2022-11-28T22:14:03.340Z,3.80
2022-11-28T22:16:29.992Z,3.90
2022-11-28T22:18:57.994Z,4.00
2022-11-28T22:24:12.125Z,4.00
2022-11-28T22:26:38.674Z,4.00
2022-11-28T22:29:05.262Z,4.00
2022-11-28T22:31:32.345Z,3.90
2022-11-28T22:33:59.081Z,3.90
2022-11-28T22:36:25.662Z,3.90
2022-11-28T22:38:56.426Z,3.90
2022-11-28T22:41:28.265Z,3.90
2022-11-28T22:43:56.609Z,4.00
2022-11-28T22:46:23.270Z,4.00
2022-11-28T22:48:50.632Z,4.00
2022-11-28T22:51:19.183Z,4.10
2022-11-28T22:53:45.744Z,4.00
2022-11-28T22:56:13.753Z,4.00
2022-11-28T22:58:42.824Z,4.00
2022-11-28T23:01:10.927Z,4.10
2022-11-28T23:03:37.508Z,4.00
2022-11-28T23:06:14.837Z,4.10
2022-11-28T23:08:41.463Z,4.10
2022-11-28T23:11:15.787Z,4.10
2022-11-28T23:13:42.553Z,4.10
2022-11-28T23:16:13.445Z,4.10
2022-11-28T23:18:40.593Z,4.10
2022-11-28T23:21:07.349Z,4.10
2022-11-28T23:23:34.669Z,4.00
2022-11-28T23:26:05.498Z,4.00
2022-11-28T23:28:32.705Z,4.10
2022-11-28T23:31:12.801Z,4.00
2022-11-28T23:33:40.069Z,4.00
2022-11-28T23:36:12.730Z,4.00
2022-11-28T23:38:39.244Z,4.00
2022-11-28T23:41:05.747Z,4.00
2022-11-28T23:43:32.691Z,4.00
2022-11-28T23:45:59.273Z,4.00
2022-11-28T23:48:25.861Z,4.10
2022-11-28T23:50:52.419Z,4.10
2022-11-28T23:53:18.963Z,4.10
2022-11-28T23:55:45.586Z,4.10
2022-11-28T23:58:12.122Z,4.10
